• Join FlightAware (Why Join?)
  • Login
  • US Flag 
03:26AM EDT


 

Airport Tracker/Info


-or-


 

Live Flight TrackerFlight Track Log ✈ N92PK ✈ 20-Sep-2013 ✈ KLEX - KSOP

Flight Track Log - Related Links

Times and Time Zones

All times are in EDT time to prevent confusion due to time zone crossing. See the N92PK flight status page for this flight to view local times or setup timezone preferences in your user account.

Time Position Orientation Groundspeed Altitude Reporting Facility
EDT Latitude Longitude Course Direction KTS MPH feet Rate Location/Type
12:53PM 38.0210 -84.6180 180° South 113 130 1,500  Level FlightAware
12:53PM 38.0090 -84.6150 169° South 116 133 1,900 960 Climbing FlightAware
12:54PM 37.9990 -84.6110 163° South 122 140 2,200 900 Climbing FlightAware
12:54PM 37.9950 -84.6080 149° Southeast 130 150 2,300 720 Climbing FlightAware
12:54PM 37.9920 -84.6010 119° Southeast 139 160 2,400 840 Climbing FlightAware
12:54PM 37.9860 -84.5880 120° Southeast 139 160 2,700 840 Climbing FlightAware
12:55PM 37.9780 -84.5720 122° Southeast 142 163 3,000 600 Climbing FlightAware
12:55PM 37.9760 -84.5670 117° Southeast 143 165 3,000 660 Level FlightAware
12:55PM 37.9650 -84.5460 124° Southeast 144 166 3,400 840 Climbing FlightAware
12:56PM 37.9590 -84.5320 119° Southeast 143 165 3,700 900 Climbing FlightAware
12:56PM 37.9520 -84.5190 124° Southeast 141 162 4,000 1,080 Climbing FlightAware
12:56PM 37.9450 -84.5050 122° Southeast 140 161 4,400 960 Climbing FlightAware
12:57PM 37.9380 -84.4890 119° Southeast 143 165 4,700 900 Climbing FlightAware
12:57PM 37.9320 -84.4780 125° Southeast 142 163 5,000 960 Climbing FlightAware
12:57PM 37.9250 -84.4630 121° Southeast 147 169 5,300 720 Climbing FlightAware
12:58PM 37.9180 -84.4490 122° Southeast 151 174 5,500 840 Climbing FlightAware
12:58PM 37.9120 -84.4380 125° Southeast 149 171 5,800 1,080 Climbing FlightAware
12:58PM 37.9040 -84.4200 119° Southeast 147 169 6,200 900 Climbing FlightAware
12:58PM 37.8970 -84.4060 122° Southeast 149 171 6,500 960 Climbing FlightAware
12:59PM 37.8900 -84.3930 124° Southeast 147 169 6,800 900 Climbing FlightAware
12:59PM 37.8810 -84.3730 120° Southeast 148 170 7,200 900 Climbing FlightAware
01:00PM 37.8740 -84.3600 124° Southeast 146 168 7,500 960 Climbing FlightAware
01:00PM 37.8690 -84.3500 122° Southeast 150 173 7,700 840 Climbing FlightAware
01:00PM 37.8610 -84.3340 122° Southeast 151 174 8,000 720 Climbing FlightAware
01:00PM 37.8550 -84.3210 120° Southeast 151 174 8,200 780 Climbing FlightAware
01:01PM 37.8480 -84.3060 121° Southeast 154 177 8,500 900 Climbing FlightAware
01:01PM 37.8400 -84.2900 122° Southeast 153 176 8,800 900 Climbing FlightAware
01:01PM 37.8330 -84.2760 122° Southeast 154 177 9,100 780 Climbing FlightAware
01:02PM 37.8260 -84.2620 122° Southeast 156 180 9,300 600 Climbing FlightAware
01:02PM 37.8190 -84.2470 121° Southeast 157 181 9,500 780 Climbing FlightAware
01:02PM 37.8120 -84.2330 122° Southeast 157 181 9,800 720 Climbing FlightAware
01:03PM 37.8030 -84.2150 122° Southeast 170 196 10,000 300 Climbing FlightAware
01:03PM 37.7960 -84.2030 126° Southeast 177 204 10,000 600 Level FlightAware
01:03PM 37.7820 -84.1720 120° Southeast 172 198 10,500 720 Climbing FlightAware
01:04PM 37.7660 -84.1410 123° Southeast 172 198 10,900 300 Climbing FlightAware
01:05PM 37.7500 -84.1100 123° Southeast 185 213 10,900  Level FlightAware
01:05PM 37.7350 -84.0800 122° Southeast 187 215 10,900  Level FlightAware
01:06PM 37.7210 -84.0500 121° Southeast 186 214 10,900  Level FlightAware
01:06PM 37.7020 -84.0110 122° Southeast 186 214 10,900  Level FlightAware
01:07PM 37.6870 -83.9820 123° Southeast 187 215 10,900  Level FlightAware
01:08PM 37.6700 -83.9480 122° Southeast 188 216 10,900  Level FlightAware
01:08PM 37.6550 -83.9180 122° Southeast 189 217 10,900  Level FlightAware
01:09PM 37.6380 -83.8830 122° Southeast 188 216 10,900  Level FlightAware
01:09PM 37.6220 -83.8520 123° Southeast 187 215 10,900  Level FlightAware
01:10PM 37.6070 -83.8220 122° Southeast 189 217 10,900  Level FlightAware
01:11PM 37.5750 -83.7580 122° Southeast 191 220 10,900  Level FlightAware
01:12PM 37.5600 -83.7280 122° Southeast 191 220 10,900  Level FlightAware
01:12PM 37.5420 -83.6910 122° Southeast 191 220 10,900  Level FlightAware
01:13PM 37.5240 -83.6560 123° Southeast 191 220 10,900  Level FlightAware
01:13PM 37.5060 -83.6200 122° Southeast 191 220 10,900  Level FlightAware
01:14PM 37.4890 -83.5860 122° Southeast 191 220 10,900  Level FlightAware
01:15PM 37.4720 -83.5530 123° Southeast 189 217 10,900  Level FlightAware
01:15PM 37.4520 -83.5120 122° Southeast 189 217 10,900  Level FlightAware
01:16PM 37.4380 -83.4840 122° Southeast 189 217 10,900  Level FlightAware
01:17PM 37.4240 -83.4550 121° Southeast 189 217 10,900 60 Level FlightAware
01:17PM 37.4008 -83.4114 121° Southeast 190 219 11,000  Climbing Indianapolis Center
01:18PM 37.3664 -83.3444 123° Southeast 194 223 11,000  Level Indianapolis Center
01:19PM 37.3381 -83.2886 123° Southeast 190 219 11,000  Level Indianapolis Center
01:20PM 37.3094 -83.2317 122° Southeast 191 220 11,000  Level Indianapolis Center
01:21PM 37.2814 -83.1758 122° Southeast 189 217 11,000  Level Indianapolis Center
01:22PM 37.2522 -83.1192 123° Southeast 192 221 11,000  Level Indianapolis Center
01:24PM 37.2231 -83.0625 123° Southeast 193 222 11,000 -60 Level Indianapolis Center
01:29PM 37.0479 -82.7214 123° Southeast 194 223 10,900 -60 Descending FlightAware ADS-B
01:33PM 36.9576 -82.5472 123° Southeast 191 220 10,900  Level FlightAware ADS-B
01:33PM 36.9384 -82.5102 123° Southeast 191 220 10,900  Level FlightAware ADS-B
01:34PM 36.9070 -82.4499 123° Southeast 189 217 10,900  Level FlightAware ADS-B
01:35PM 36.8936 -82.4247 123° Southeast 190 219 11,000 60 Climbing Indianapolis Center
01:36PM 36.8658 -82.3694 122° Southeast 187 215 11,000  Level Indianapolis Center
01:37PM 36.8369 -82.3142 123° Southeast 188 216 11,000  Level Indianapolis Center
01:38PM 36.8078 -82.2608 124° Southeast 187 215 11,000  Level Indianapolis Center
01:39PM 36.7744 -82.1950 122° Southeast 192 221 11,000  Level Indianapolis Center
01:40PM 36.7433 -82.1394 125° Southeast 195 224 11,000  Level Indianapolis Center
01:41PM 36.7147 -82.0847 123° Southeast 189 217 11,000  Level Indianapolis Center
01:42PM 36.6861 -82.0300 123° Southeast 187 215 11,000  Level Atlanta Center
01:43PM 36.6583 -81.9736 122° Southeast 192 221 11,000  Level Atlanta Center
01:44PM 36.6261 -81.9203 127° Southeast 192 221 11,000  Level Atlanta Center
01:45PM 36.5981 -81.8667 123° Southeast 187 215 11,000  Level Atlanta Center
01:46PM 36.5697 -81.8106 122° Southeast 187 215 11,000  Level Atlanta Center
01:47PM 36.5417 -81.7572 123° Southeast 192 221 11,000  Level Atlanta Center
01:48PM 36.5114 -81.7011 124° Southeast 192 221 11,000  Level Atlanta Center
01:49PM 36.4833 -81.6450 122° Southeast 192 221 11,000  Level Atlanta Center
01:50PM 36.4531 -81.5919 125° Southeast 192 221 11,000  Level Atlanta Center
01:51PM 36.4269 -81.5411 123° Southeast 192 221 11,000  Level Atlanta Center
01:52PM 36.3989 -81.4878 123° Southeast 192 221 11,000  Level Atlanta Center
01:53PM 36.3683 -81.4319 124° Southeast 192 221 11,000  Level Atlanta Center
01:54PM 36.3403 -81.3789 123° Southeast 192 221 11,000  Level Atlanta Center
01:55PM 36.3097 -81.3231 124° Southeast 192 221 11,000  Level Atlanta Center
01:56PM 36.2814 -81.2700 124° Southeast 192 221 11,000  Level Atlanta Center
01:57PM 36.2508 -81.2092 122° Southeast 186 214 11,000  Level Atlanta Center
01:58PM 36.2244 -81.1508 119° Southeast 186 214 11,000  Level Atlanta Center
01:59PM 36.2003 -81.0953 118° Southeast 186 214 11,000  Level Atlanta Center
02:00PM 36.1739 -81.0369 119° Southeast 181 208 11,000  Level Atlanta Center
02:01PM 36.1494 -80.9789 118° Southeast 181 208 11,000  Level Atlanta Center
02:02PM 36.1231 -80.9208 119° Southeast 181 208 11,000  Level Atlanta Center
02:03PM 36.0964 -80.8625 119° Southeast 181 208 11,000  Level Atlanta Center
02:04PM 36.0700 -80.8044 119° Southeast 181 208 11,000  Level Atlanta Center
02:05PM 36.0478 -80.7542 119° Southeast 181 208 11,000  Level Atlanta Center
02:06PM 36.0211 -80.6961 120° Southeast 187 215 11,000  Level Atlanta Center
02:07PM 35.9944 -80.6383 120° Southeast 187 215 11,000  Level Atlanta Center
02:08PM 35.9656 -80.5700 118° Southeast 192 221 11,000 -300 Level Atlanta Center
02:09PM 35.9389 -80.5175 122° Southeast 198 228 10,500 -540 Descending Atlanta Center
02:10PM 35.9036 -80.4522 124° Southeast 203 234 10,000 -540 Descending Atlanta Center
02:11PM 35.8625 -80.4028 136° Southeast 211 243 9,500 -540 Descending Atlanta Center
02:12PM 35.8214 -80.3508 134° Southeast 211 243 9,000 -540 Descending Atlanta Center
02:14PM 35.7638 -80.2961 132° Southeast  Level FlightAware Approximate
02:21PM 35.5287 -79.9783 132° Southeast  Level FlightAware Approximate
02:22PM 35.4950 -79.9331 132° Southeast  Level FlightAware Approximate
02:23PM 35.4613 -79.8879 132° Southeast  Level FlightAware Approximate
02:24PM 35.4277 -79.8427 132° Southeast  Level FlightAware Approximate
02:25PM 35.3940 -79.7975 132° Southeast  Level FlightAware Approximate
02:26PM 35.3586 -79.7544 136° Southeast  Level FlightAware Approximate
02:27PM 35.3224 -79.7123 136° Southeast  Level FlightAware Approximate
02:28PM 35.2863 -79.6701 136° Southeast  Level FlightAware Approximate
02:29PM 35.2479 -79.6312 141° Southeast  Level FlightAware Approximate
02:30PM 35.2092 -79.5925 141° Southeast  Level FlightAware Approximate
02:31PM 35.2058 -79.5374 81° East  Level FlightAware Approximate
02:32PM 35.2133 -79.4770 81° East  Level FlightAware Approximate
02:33PM 35.2248 -79.4177 73° East  Level FlightAware Approximate
02:34PM 35.2333 -79.3833 73° East  Level FlightAware Approximate
02:35PM 35.2380 -79.3883 73° East  Level Estimated
02:36PM 35.2333 -79.3833 73° East  Level FlightAware Approximate